sensor_id;sensor_type;location;lat;lon;timestamp;P1;durP1;ratioP1;P2;durP2;ratioP2
6898;SDS011;3488;42.616;23.350;2022-12-29T00:00:39;22.60;;;15.90;;
6898;SDS011;3488;42.616;23.350;2022-12-29T00:03:23;26.95;;;16.05;;
6898;SDS011;3488;42.616;23.350;2022-12-29T00:06:01;20.92;;;13.88;;
6898;SDS011;3488;42.616;23.350;2022-12-29T00:08:39;22.00;;;14.65;;
6898;SDS011;3488;42.616;23.350;2022-12-29T00:11:20;22.80;;;15.38;;
6898;SDS011;3488;42.616;23.350;2022-12-29T00:14:03;19.77;;;13.43;;
6898;SDS011;3488;42.616;23.350;2022-12-29T00:17:22;18.17;;;12.82;;
6898;SDS011;3488;42.616;23.350;2022-12-29T00:20:06;20.58;;;12.57;;
6898;SDS011;3488;42.616;23.350;2022-12-29T00:22:56;25.02;;;15.25;;
6898;SDS011;3488;42.616;23.350;2022-12-29T00:25:51;23.77;;;16.00;;
6898;SDS011;3488;42.616;23.350;2022-12-29T00:31:41;27.90;;;16.80;;
6898;SDS011;3488;42.616;23.350;2022-12-29T00:34:26;26.80;;;16.70;;
6898;SDS011;3488;42.616;23.350;2022-12-29T00:37:19;27.30;;;16.27;;
6898;SDS011;3488;42.616;23.350;2022-12-29T00:40:03;20.88;;;14.27;;
6898;SDS011;3488;42.616;23.350;2022-12-29T00:42:52;26.60;;;15.93;;
6898;SDS011;3488;42.616;23.350;2022-12-29T00:45:46;31.48;;;17.05;;
6898;SDS011;3488;42.616;23.350;2022-12-29T00:48:25;32.45;;;17.80;;
6898;SDS011;3488;42.616;23.350;2022-12-29T00:51:10;24.15;;;17.23;;
6898;SDS011;3488;42.616;23.350;2022-12-29T00:53:52;32.67;;;17.52;;
6898;SDS011;3488;42.616;23.350;2022-12-29T00:56:30;27.20;;;17.42;;
6898;SDS011;3488;42.616;23.350;2022-12-29T00:59:01;33.58;;;16.52;;
6898;SDS011;3488;42.616;23.350;2022-12-29T01:01:36;25.33;;;15.30;;
6898;SDS011;3488;42.616;23.350;2022-12-29T01:04:13;23.45;;;16.10;;
6898;SDS011;3488;42.616;23.350;2022-12-29T01:06:43;28.50;;;17.10;;
6898;SDS011;3488;42.616;23.350;2022-12-29T01:09:18;27.00;;;16.85;;
6898;SDS011;3488;42.616;23.350;2022-12-29T01:12:10;29.38;;;16.45;;
6898;SDS011;3488;42.616;23.350;2022-12-29T01:15:05;28.27;;;17.33;;
6898;SDS011;3488;42.616;23.350;2022-12-29T01:18:02;35.10;;;21.25;;
6898;SDS011;3488;42.616;23.350;2022-12-29T01:20:42;35.58;;;20.27;;
6898;SDS011;3488;42.616;23.350;2022-12-29T01:23:20;35.60;;;22.23;;
6898;SDS011;3488;42.616;23.350;2022-12-29T01:26:15;42.38;;;23.38;;
6898;SDS011;3488;42.616;23.350;2022-12-29T01:29:00;36.40;;;23.42;;
6898;SDS011;3488;42.616;23.350;2022-12-29T01:31:41;40.47;;;23.50;;
6898;SDS011;3488;42.616;23.350;2022-12-29T01:34:19;36.40;;;22.55;;
6898;SDS011;3488;42.616;23.350;2022-12-29T01:36:59;39.47;;;23.35;;
6898;SDS011;3488;42.616;23.350;2022-12-29T01:39:42;37.70;;;23.77;;
6898;SDS011;3488;42.616;23.350;2022-12-29T01:42:18;42.38;;;23.42;;
6898;SDS011;3488;42.616;23.350;2022-12-29T01:44:51;34.05;;;21.35;;
6898;SDS011;3488;42.616;23.350;2022-12-29T01:47:39;40.42;;;22.45;;
6898;SDS011;3488;42.616;23.350;2022-12-29T01:50:39;40.30;;;24.75;;
6898;SDS011;3488;42.616;23.350;2022-12-29T01:53:21;40.33;;;22.42;;
6898;SDS011;3488;42.616;23.350;2022-12-29T01:55:59;38.33;;;24.40;;
6898;SDS011;3488;42.616;23.350;2022-12-29T01:58:53;47.65;;;26.08;;
6898;SDS011;3488;42.616;23.350;2022-12-29T02:01:52;43.20;;;26.08;;
6898;SDS011;3488;42.616;23.350;2022-12-29T02:04:38;36.83;;;24.15;;
6898;SDS011;3488;42.616;23.350;2022-12-29T02:07:24;43.38;;;24.63;;
6898;SDS011;3488;42.616;23.350;2022-12-29T02:10:11;39.92;;;24.30;;
6898;SDS011;3488;42.616;23.350;2022-12-29T02:12:47;26.73;;;17.50;;
6898;SDS011;3488;42.616;23.350;2022-12-29T02:15:36;26.27;;;16.48;;
6898;SDS011;3488;42.616;23.350;2022-12-29T02:18:32;38.97;;;22.23;;
6898;SDS011;3488;42.616;23.350;2022-12-29T02:21:43;33.35;;;20.67;;
6898;SDS011;3488;42.616;23.350;2022-12-29T02:25:06;28.58;;;18.20;;
6898;SDS011;3488;42.616;23.350;2022-12-29T02:28:03;31.73;;;19.17;;
6898;SDS011;3488;42.616;23.350;2022-12-29T02:31:06;26.30;;;16.50;;
6898;SDS011;3488;42.616;23.350;2022-12-29T02:33:49;19.75;;;13.25;;
6898;SDS011;3488;42.616;23.350;2022-12-29T02:36:37;19.70;;;14.50;;
6898;SDS011;3488;42.616;23.350;2022-12-29T02:39:20;21.17;;;14.68;;
6898;SDS011;3488;42.616;23.350;2022-12-29T02:42:01;28.70;;;14.05;;
6898;SDS011;3488;42.616;23.350;2022-12-29T02:44:40;22.17;;;14.98;;
6898;SDS011;3488;42.616;23.350;2022-12-29T02:47:20;21.25;;;13.80;;
6898;SDS011;3488;42.616;23.350;2022-12-29T02:50:01;20.13;;;13.10;;
6898;SDS011;3488;42.616;23.350;2022-12-29T02:52:46;24.10;;;15.93;;
6898;SDS011;3488;42.616;23.350;2022-12-29T02:55:27;27.50;;;17.40;;
6898;SDS011;3488;42.616;23.350;2022-12-29T02:58:08;30.77;;;19.13;;
6898;SDS011;3488;42.616;23.350;2022-12-29T03:00:55;40.20;;;22.92;;
6898;SDS011;3488;42.616;23.350;2022-12-29T03:03:46;40.95;;;26.85;;
6898;SDS011;3488;42.616;23.350;2022-12-29T03:06:28;37.72;;;25.38;;
6898;SDS011;3488;42.616;23.350;2022-12-29T03:09:09;37.75;;;23.50;;
6898;SDS011;3488;42.616;23.350;2022-12-29T03:11:46;37.47;;;22.95;;
6898;SDS011;3488;42.616;23.350;2022-12-29T03:14:39;42.80;;;25.27;;
6898;SDS011;3488;42.616;23.350;2022-12-29T03:17:46;40.00;;;26.13;;
6898;SDS011;3488;42.616;23.350;2022-12-29T03:20:26;36.15;;;18.50;;
6898;SDS011;3488;42.616;23.350;2022-12-29T03:23:10;28.50;;;18.35;;
6898;SDS011;3488;42.616;23.350;2022-12-29T03:25:51;23.83;;;15.80;;
6898;SDS011;3488;42.616;23.350;2022-12-29T03:28:25;29.60;;;18.35;;
6898;SDS011;3488;42.616;23.350;2022-12-29T03:30:57;28.13;;;17.83;;
6898;SDS011;3488;42.616;23.350;2022-12-29T03:33:26;29.80;;;19.05;;
6898;SDS011;3488;42.616;23.350;2022-12-29T03:36:03;32.65;;;19.33;;
6898;SDS011;3488;42.616;23.350;2022-12-29T03:38:45;28.48;;;18.02;;
6898;SDS011;3488;42.616;23.350;2022-12-29T03:41:26;29.08;;;17.63;;
6898;SDS011;3488;42.616;23.350;2022-12-29T03:44:02;33.80;;;19.23;;
6898;SDS011;3488;42.616;23.350;2022-12-29T03:46:36;25.52;;;17.00;;
6898;SDS011;3488;42.616;23.350;2022-12-29T03:49:06;27.75;;;16.70;;
6898;SDS011;3488;42.616;23.350;2022-12-29T03:51:37;26.75;;;16.90;;
6898;SDS011;3488;42.616;23.350;2022-12-29T03:54:04;31.10;;;16.63;;
6898;SDS011;3488;42.616;23.350;2022-12-29T03:56:36;26.60;;;16.25;;
6898;SDS011;3488;42.616;23.350;2022-12-29T03:59:05;29.50;;;17.25;;
6898;SDS011;3488;42.616;23.350;2022-12-29T04:01:34;30.35;;;17.50;;
6898;SDS011;3488;42.616;23.350;2022-12-29T04:04:14;39.53;;;17.45;;
6898;SDS011;3488;42.616;23.350;2022-12-29T04:06:46;28.08;;;17.35;;
6898;SDS011;3488;42.616;23.350;2022-12-29T04:09:27;25.75;;;16.77;;
6898;SDS011;3488;42.616;23.350;2022-12-29T04:12:07;28.05;;;16.63;;
6898;SDS011;3488;42.616;23.350;2022-12-29T04:14:39;25.88;;;17.23;;
6898;SDS011;3488;42.616;23.350;2022-12-29T04:17:06;24.73;;;15.40;;
6898;SDS011;3488;42.616;23.350;2022-12-29T04:19:42;23.00;;;14.93;;
6898;SDS011;3488;42.616;23.350;2022-12-29T04:22:21;26.55;;;16.27;;
6898;SDS011;3488;42.616;23.350;2022-12-29T04:24:53;27.48;;;16.77;;
6898;SDS011;3488;42.616;23.350;2022-12-29T04:27:26;26.05;;;17.42;;
6898;SDS011;3488;42.616;23.350;2022-12-29T04:29:53;28.08;;;16.27;;
6898;SDS011;3488;42.616;23.350;2022-12-29T04:32:23;23.55;;;14.57;;
6898;SDS011;3488;42.616;23.350;2022-12-29T04:34:54;25.38;;;15.88;;
6898;SDS011;3488;42.616;23.350;2022-12-29T04:37:34;25.23;;;16.63;;
6898;SDS011;3488;42.616;23.350;2022-12-29T04:40:08;31.00;;;18.23;;
6898;SDS011;3488;42.616;23.350;2022-12-29T04:42:36;31.88;;;19.27;;
6898;SDS011;3488;42.616;23.350;2022-12-29T04:45:17;35.33;;;19.23;;
6898;SDS011;3488;42.616;23.350;2022-12-29T04:47:56;38.25;;;21.88;;
6898;SDS011;3488;42.616;23.350;2022-12-29T04:50:30;39.08;;;22.55;;
6898;SDS011;3488;42.616;23.350;2022-12-29T04:52:59;39.72;;;23.73;;
6898;SDS011;3488;42.616;23.350;2022-12-29T04:55:38;36.30;;;23.33;;
6898;SDS011;3488;42.616;23.350;2022-12-29T04:58:27;39.90;;;23.65;;
6898;SDS011;3488;42.616;23.350;2022-12-29T05:01:05;35.05;;;20.27;;
6898;SDS011;3488;42.616;23.350;2022-12-29T05:03:39;36.25;;;21.95;;
6898;SDS011;3488;42.616;23.350;2022-12-29T05:06:11;36.35;;;21.63;;
6898;SDS011;3488;42.616;23.350;2022-12-29T05:08:46;37.60;;;21.50;;
6898;SDS011;3488;42.616;23.350;2022-12-29T05:11:14;31.48;;;20.13;;
6898;SDS011;3488;42.616;23.350;2022-12-29T05:13:46;39.42;;;20.90;;
6898;SDS011;3488;42.616;23.350;2022-12-29T05:16:22;33.42;;;19.60;;
6898;SDS011;3488;42.616;23.350;2022-12-29T05:18:51;25.52;;;16.55;;
6898;SDS011;3488;42.616;23.350;2022-12-29T05:21:28;24.00;;;16.77;;
6898;SDS011;3488;42.616;23.350;2022-12-29T05:24:07;25.10;;;15.48;;
6898;SDS011;3488;42.616;23.350;2022-12-29T05:26:40;25.17;;;14.73;;
6898;SDS011;3488;42.616;23.350;2022-12-29T05:29:20;25.77;;;15.05;;
6898;SDS011;3488;42.616;23.350;2022-12-29T05:31:53;19.10;;;12.52;;
6898;SDS011;3488;42.616;23.350;2022-12-29T05:34:35;15.75;;;12.13;;
6898;SDS011;3488;42.616;23.350;2022-12-29T05:37:35;20.02;;;12.63;;
6898;SDS011;3488;42.616;23.350;2022-12-29T05:40:10;50.75;;;24.10;;
6898;SDS011;3488;42.616;23.350;2022-12-29T05:42:48;59.75;;;29.60;;
6898;SDS011;3488;42.616;23.350;2022-12-29T05:45:25;57.88;;;25.83;;
6898;SDS011;3488;42.616;23.350;2022-12-29T05:47:54;66.30;;;29.13;;
6898;SDS011;3488;42.616;23.350;2022-12-29T05:50:53;57.55;;;28.27;;
6898;SDS011;3488;42.616;23.350;2022-12-29T05:53:50;72.60;;;29.58;;
6898;SDS011;3488;42.616;23.350;2022-12-29T05:56:21;49.45;;;26.77;;
6898;SDS011;3488;42.616;23.350;2022-12-29T05:58:50;40.72;;;21.48;;
6898;SDS011;3488;42.616;23.350;2022-12-29T06:01:23;36.35;;;20.33;;
6898;SDS011;3488;42.616;23.350;2022-12-29T06:03:56;31.58;;;19.85;;
6898;SDS011;3488;42.616;23.350;2022-12-29T06:06:32;37.63;;;19.42;;
6898;SDS011;3488;42.616;23.350;2022-12-29T06:09:22;30.20;;;17.90;;
6898;SDS011;3488;42.616;23.350;2022-12-29T06:12:08;32.97;;;18.63;;
6898;SDS011;3488;42.616;23.350;2022-12-29T06:14:43;32.33;;;20.30;;
6898;SDS011;3488;42.616;23.350;2022-12-29T06:17:26;42.35;;;23.13;;
6898;SDS011;3488;42.616;23.350;2022-12-29T06:19:59;39.78;;;22.20;;
6898;SDS011;3488;42.616;23.350;2022-12-29T06:22:26;40.95;;;24.42;;
6898;SDS011;3488;42.616;23.350;2022-12-29T06:24:55;39.30;;;22.92;;
6898;SDS011;3488;42.616;23.350;2022-12-29T06:27:23;32.97;;;20.55;;
6898;SDS011;3488;42.616;23.350;2022-12-29T06:29:50;34.63;;;19.55;;
6898;SDS011;3488;42.616;23.350;2022-12-29T06:32:17;33.30;;;19.05;;
6898;SDS011;3488;42.616;23.350;2022-12-29T06:34:44;23.77;;;16.50;;
6898;SDS011;3488;42.616;23.350;2022-12-29T06:37:11;26.40;;;16.98;;
6898;SDS011;3488;42.616;23.350;2022-12-29T06:39:39;27.30;;;17.60;;
6898;SDS011;3488;42.616;23.350;2022-12-29T06:42:08;22.70;;;15.30;;
6898;SDS011;3488;42.616;23.350;2022-12-29T06:44:37;25.38;;;16.50;;
6898;SDS011;3488;42.616;23.350;2022-12-29T06:47:04;24.83;;;16.50;;
6898;SDS011;3488;42.616;23.350;2022-12-29T06:49:33;26.75;;;17.80;;
6898;SDS011;3488;42.616;23.350;2022-12-29T06:52:00;27.00;;;14.57;;
6898;SDS011;3488;42.616;23.350;2022-12-29T06:54:29;28.23;;;18.67;;
6898;SDS011;3488;42.616;23.350;2022-12-29T06:56:58;30.65;;;19.05;;
6898;SDS011;3488;42.616;23.350;2022-12-29T06:59:31;31.45;;;19.25;;
6898;SDS011;3488;42.616;23.350;2022-12-29T07:02:10;39.53;;;23.30;;
6898;SDS011;3488;42.616;23.350;2022-12-29T07:04:50;32.45;;;21.83;;
6898;SDS011;3488;42.616;23.350;2022-12-29T07:07:32;45.92;;;28.02;;
6898;SDS011;3488;42.616;23.350;2022-12-29T07:10:06;44.10;;;26.42;;
6898;SDS011;3488;42.616;23.350;2022-12-29T07:12:34;48.28;;;27.98;;
6898;SDS011;3488;42.616;23.350;2022-12-29T07:15:18;40.40;;;25.35;;
6898;SDS011;3488;42.616;23.350;2022-12-29T07:17:50;48.70;;;28.35;;
6898;SDS011;3488;42.616;23.350;2022-12-29T07:20:23;50.22;;;29.00;;
6898;SDS011;3488;42.616;23.350;2022-12-29T07:23:00;51.17;;;29.38;;
6898;SDS011;3488;42.616;23.350;2022-12-29T07:25:37;47.63;;;29.00;;
6898;SDS011;3488;42.616;23.350;2022-12-29T07:28:09;45.08;;;28.75;;
6898;SDS011;3488;42.616;23.350;2022-12-29T07:31:09;65.40;;;36.67;;
6898;SDS011;3488;42.616;23.350;2022-12-29T07:33:49;61.55;;;31.75;;
6898;SDS011;3488;42.616;23.350;2022-12-29T07:36:19;58.80;;;32.83;;
6898;SDS011;3488;42.616;23.350;2022-12-29T07:38:54;49.90;;;30.50;;
6898;SDS011;3488;42.616;23.350;2022-12-29T07:41:23;45.75;;;27.75;;
6898;SDS011;3488;42.616;23.350;2022-12-29T07:43:59;44.60;;;27.67;;
6898;SDS011;3488;42.616;23.350;2022-12-29T07:46:29;45.00;;;28.02;;
6898;SDS011;3488;42.616;23.350;2022-12-29T07:49:02;47.03;;;27.60;;
6898;SDS011;3488;42.616;23.350;2022-12-29T07:51:35;42.88;;;26.55;;
6898;SDS011;3488;42.616;23.350;2022-12-29T07:54:12;37.80;;;26.00;;
6898;SDS011;3488;42.616;23.350;2022-12-29T07:56:46;45.88;;;27.30;;
6898;SDS011;3488;42.616;23.350;2022-12-29T07:59:29;46.15;;;26.48;;
6898;SDS011;3488;42.616;23.350;2022-12-29T08:02:01;43.17;;;27.35;;
6898;SDS011;3488;42.616;23.350;2022-12-29T08:04:47;47.42;;;27.75;;
6898;SDS011;3488;42.616;23.350;2022-12-29T08:07:28;43.45;;;27.38;;
6898;SDS011;3488;42.616;23.350;2022-12-29T08:10:02;50.13;;;27.85;;
6898;SDS011;3488;42.616;23.350;2022-12-29T08:12:37;39.47;;;26.75;;
6898;SDS011;3488;42.616;23.350;2022-12-29T08:15:10;46.33;;;28.48;;
6898;SDS011;3488;42.616;23.350;2022-12-29T08:17:46;45.95;;;27.83;;
6898;SDS011;3488;42.616;23.350;2022-12-29T08:20:18;44.75;;;27.52;;
6898;SDS011;3488;42.616;23.350;2022-12-29T08:22:49;46.17;;;28.45;;
6898;SDS011;3488;42.616;23.350;2022-12-29T08:25:24;43.13;;;26.67;;
6898;SDS011;3488;42.616;23.350;2022-12-29T08:27:51;47.55;;;28.08;;
6898;SDS011;3488;42.616;23.350;2022-12-29T08:30:25;47.53;;;28.08;;
6898;SDS011;3488;42.616;23.350;2022-12-29T08:32:57;46.58;;;28.08;;
6898;SDS011;3488;42.616;23.350;2022-12-29T08:35:32;44.83;;;26.75;;
6898;SDS011;3488;42.616;23.350;2022-12-29T08:38:08;39.97;;;26.00;;
6898;SDS011;3488;42.616;23.350;2022-12-29T08:40:38;44.78;;;27.15;;
6898;SDS011;3488;42.616;23.350;2022-12-29T08:43:11;47.25;;;26.73;;
6898;SDS011;3488;42.616;23.350;2022-12-29T08:45:48;41.63;;;27.60;;
6898;SDS011;3488;42.616;23.350;2022-12-29T08:48:25;44.83;;;28.40;;
6898;SDS011;3488;42.616;23.350;2022-12-29T08:50:52;46.47;;;28.40;;
6898;SDS011;3488;42.616;23.350;2022-12-29T08:53:29;41.47;;;27.25;;
6898;SDS011;3488;42.616;23.350;2022-12-29T08:55:59;45.55;;;29.65;;
6898;SDS011;3488;42.616;23.350;2022-12-29T08:58:26;47.15;;;26.92;;
6898;SDS011;3488;42.616;23.350;2022-12-29T09:00:58;49.78;;;29.80;;
6898;SDS011;3488;42.616;23.350;2022-12-29T09:03:45;43.40;;;27.73;;
6898;SDS011;3488;42.616;23.350;2022-12-29T09:06:31;43.85;;;28.88;;
6898;SDS011;3488;42.616;23.350;2022-12-29T09:09:07;49.42;;;28.90;;
6898;SDS011;3488;42.616;23.350;2022-12-29T09:11:42;48.50;;;29.95;;
6898;SDS011;3488;42.616;23.350;2022-12-29T09:14:11;42.70;;;27.00;;
6898;SDS011;3488;42.616;23.350;2022-12-29T09:16:38;39.30;;;26.35;;
6898;SDS011;3488;42.616;23.350;2022-12-29T09:19:20;40.28;;;26.90;;
6898;SDS011;3488;42.616;23.350;2022-12-29T09:21:47;45.60;;;26.70;;
6898;SDS011;3488;42.616;23.350;2022-12-29T09:24:14;38.85;;;26.98;;
6898;SDS011;3488;42.616;23.350;2022-12-29T09:26:42;47.33;;;27.10;;
6898;SDS011;3488;42.616;23.350;2022-12-29T09:29:09;41.15;;;26.60;;
6898;SDS011;3488;42.616;23.350;2022-12-29T09:31:36;42.45;;;27.02;;
6898;SDS011;3488;42.616;23.350;2022-12-29T09:34:06;42.17;;;24.98;;
6898;SDS011;3488;42.616;23.350;2022-12-29T09:36:37;41.72;;;26.48;;
6898;SDS011;3488;42.616;23.350;2022-12-29T09:39:07;43.97;;;26.90;;
6898;SDS011;3488;42.616;23.350;2022-12-29T09:41:38;45.17;;;27.30;;
6898;SDS011;3488;42.616;23.350;2022-12-29T09:44:14;45.65;;;26.92;;
6898;SDS011;3488;42.616;23.350;2022-12-29T09:46:52;40.45;;;27.15;;
6898;SDS011;3488;42.616;23.350;2022-12-29T09:49:24;36.15;;;24.77;;
6898;SDS011;3488;42.616;23.350;2022-12-29T09:51:57;36.78;;;23.98;;
6898;SDS011;3488;42.616;23.350;2022-12-29T09:54:39;36.40;;;24.63;;
6898;SDS011;3488;42.616;23.350;2022-12-29T09:57:24;33.63;;;24.38;;
6898;SDS011;3488;42.616;23.350;2022-12-29T10:00:19;41.88;;;25.67;;
6898;SDS011;3488;42.616;23.350;2022-12-29T10:03:10;36.97;;;22.88;;
6898;SDS011;3488;42.616;23.350;2022-12-29T10:05:50;40.28;;;23.70;;
6898;SDS011;3488;42.616;23.350;2022-12-29T10:08:42;39.78;;;25.20;;
6898;SDS011;3488;42.616;23.350;2022-12-29T10:11:33;36.70;;;24.38;;
6898;SDS011;3488;42.616;23.350;2022-12-29T10:14:41;35.85;;;23.63;;
6898;SDS011;3488;42.616;23.350;2022-12-29T10:17:26;41.08;;;24.02;;
6898;SDS011;3488;42.616;23.350;2022-12-29T10:20:12;34.38;;;23.63;;
6898;SDS011;3488;42.616;23.350;2022-12-29T10:22:57;41.03;;;25.85;;
6898;SDS011;3488;42.616;23.350;2022-12-29T10:25:55;38.95;;;24.50;;
6898;SDS011;3488;42.616;23.350;2022-12-29T10:28:31;40.17;;;24.20;;
6898;SDS011;3488;42.616;23.350;2022-12-29T10:31:09;39.00;;;23.95;;
6898;SDS011;3488;42.616;23.350;2022-12-29T10:33:48;34.65;;;23.35;;
6898;SDS011;3488;42.616;23.350;2022-12-29T10:36:27;34.92;;;23.42;;
6898;SDS011;3488;42.616;23.350;2022-12-29T10:39:05;31.38;;;23.50;;
6898;SDS011;3488;42.616;23.350;2022-12-29T10:41:44;42.03;;;24.35;;
6898;SDS011;3488;42.616;23.350;2022-12-29T10:44:16;42.03;;;25.10;;
6898;SDS011;3488;42.616;23.350;2022-12-29T10:46:54;40.88;;;24.02;;
6898;SDS011;3488;42.616;23.350;2022-12-29T10:49:25;39.95;;;25.17;;
6898;SDS011;3488;42.616;23.350;2022-12-29T10:51:58;37.30;;;24.05;;
6898;SDS011;3488;42.616;23.350;2022-12-29T10:54:33;34.20;;;24.15;;
6898;SDS011;3488;42.616;23.350;2022-12-29T10:57:16;34.33;;;23.75;;
6898;SDS011;3488;42.616;23.350;2022-12-29T10:59:52;43.13;;;25.48;;
6898;SDS011;3488;42.616;23.350;2022-12-29T11:02:29;42.45;;;24.58;;
6898;SDS011;3488;42.616;23.350;2022-12-29T11:05:21;34.95;;;25.10;;
6898;SDS011;3488;42.616;23.350;2022-12-29T11:07:54;37.75;;;24.50;;
6898;SDS011;3488;42.616;23.350;2022-12-29T11:10:30;41.67;;;26.45;;
6898;SDS011;3488;42.616;23.350;2022-12-29T11:13:10;42.13;;;25.75;;
6898;SDS011;3488;42.616;23.350;2022-12-29T11:15:43;39.63;;;24.95;;
6898;SDS011;3488;42.616;23.350;2022-12-29T11:18:18;39.35;;;25.27;;
6898;SDS011;3488;42.616;23.350;2022-12-29T11:20:48;38.70;;;25.65;;
6898;SDS011;3488;42.616;23.350;2022-12-29T11:23:25;41.97;;;23.90;;
6898;SDS011;3488;42.616;23.350;2022-12-29T11:26:05;35.30;;;23.55;;
6898;SDS011;3488;42.616;23.350;2022-12-29T11:28:41;39.63;;;25.20;;
6898;SDS011;3488;42.616;23.350;2022-12-29T11:31:17;38.60;;;23.60;;
6898;SDS011;3488;42.616;23.350;2022-12-29T11:33:48;43.60;;;24.35;;
6898;SDS011;3488;42.616;23.350;2022-12-29T11:36:15;39.67;;;24.48;;
6898;SDS011;3488;42.616;23.350;2022-12-29T11:38:46;36.03;;;23.90;;
6898;SDS011;3488;42.616;23.350;2022-12-29T11:41:19;33.70;;;24.15;;
6898;SDS011;3488;42.616;23.350;2022-12-29T11:43:50;39.45;;;23.70;;
6898;SDS011;3488;42.616;23.350;2022-12-29T11:46:22;38.08;;;24.55;;
6898;SDS011;3488;42.616;23.350;2022-12-29T11:48:57;44.70;;;24.58;;
6898;SDS011;3488;42.616;23.350;2022-12-29T11:51:33;38.80;;;24.85;;
6898;SDS011;3488;42.616;23.350;2022-12-29T11:54:05;42.08;;;24.27;;
6898;SDS011;3488;42.616;23.350;2022-12-29T11:56:37;38.03;;;24.13;;
6898;SDS011;3488;42.616;23.350;2022-12-29T12:05:05;42.95;;;23.17;;
6898;SDS011;3488;42.616;23.350;2022-12-29T12:07:40;41.50;;;24.45;;
6898;SDS011;3488;42.616;23.350;2022-12-29T12:10:15;40.65;;;23.88;;
6898;SDS011;3488;42.616;23.350;2022-12-29T12:12:55;45.88;;;24.15;;
6898;SDS011;3488;42.616;23.350;2022-12-29T12:15:32;41.33;;;23.58;;
6898;SDS011;3488;42.616;23.350;2022-12-29T12:18:05;33.92;;;22.85;;
6898;SDS011;3488;42.616;23.350;2022-12-29T12:20:45;36.28;;;22.67;;
6898;SDS011;3488;42.616;23.350;2022-12-29T12:23:22;36.42;;;23.88;;
6898;SDS011;3488;42.616;23.350;2022-12-29T12:26:02;32.80;;;22.48;;
6898;SDS011;3488;42.616;23.350;2022-12-29T12:28:49;33.00;;;23.00;;
6898;SDS011;3488;42.616;23.350;2022-12-29T12:31:34;35.03;;;24.25;;
6898;SDS011;3488;42.616;23.350;2022-12-29T12:34:35;36.58;;;23.35;;
6898;SDS011;3488;42.616;23.350;2022-12-29T12:37:15;38.40;;;24.15;;
6898;SDS011;3488;42.616;23.350;2022-12-29T12:40:02;35.60;;;23.00;;
6898;SDS011;3488;42.616;23.350;2022-12-29T12:42:50;35.13;;;24.73;;
6898;SDS011;3488;42.616;23.350;2022-12-29T12:45:44;37.70;;;24.17;;
6898;SDS011;3488;42.616;23.350;2022-12-29T12:48:28;41.63;;;24.38;;
6898;SDS011;3488;42.616;23.350;2022-12-29T12:51:11;35.65;;;22.65;;
6898;SDS011;3488;42.616;23.350;2022-12-29T12:53:48;38.28;;;24.90;;
6898;SDS011;3488;42.616;23.350;2022-12-29T12:56:38;38.92;;;24.42;;
6898;SDS011;3488;42.616;23.350;2022-12-29T12:59:15;38.10;;;24.40;;
6898;SDS011;3488;42.616;23.350;2022-12-29T13:01:54;39.75;;;25.58;;
6898;SDS011;3488;42.616;23.350;2022-12-29T13:04:34;41.95;;;25.15;;
6898;SDS011;3488;42.616;23.350;2022-12-29T13:07:27;34.28;;;23.80;;
6898;SDS011;3488;42.616;23.350;2022-12-29T13:10:13;38.80;;;24.67;;
6898;SDS011;3488;42.616;23.350;2022-12-29T13:12:50;44.53;;;24.73;;
6898;SDS011;3488;42.616;23.350;2022-12-29T13:15:32;40.45;;;24.00;;
6898;SDS011;3488;42.616;23.350;2022-12-29T13:18:15;44.67;;;24.95;;
6898;SDS011;3488;42.616;23.350;2022-12-29T13:20:59;40.90;;;24.35;;
6898;SDS011;3488;42.616;23.350;2022-12-29T13:23:34;42.33;;;25.92;;
6898;SDS011;3488;42.616;23.350;2022-12-29T13:26:09;49.65;;;26.73;;
6898;SDS011;3488;42.616;23.350;2022-12-29T13:28:45;34.20;;;24.13;;
6898;SDS011;3488;42.616;23.350;2022-12-29T13:31:20;41.03;;;24.33;;
6898;SDS011;3488;42.616;23.350;2022-12-29T13:33:59;42.40;;;24.08;;
6898;SDS011;3488;42.616;23.350;2022-12-29T13:36:35;38.33;;;24.85;;
6898;SDS011;3488;42.616;23.350;2022-12-29T13:39:09;34.88;;;23.80;;
6898;SDS011;3488;42.616;23.350;2022-12-29T13:41:45;41.15;;;24.17;;
6898;SDS011;3488;42.616;23.350;2022-12-29T13:44:17;38.30;;;24.45;;
6898;SDS011;3488;42.616;23.350;2022-12-29T13:46:49;44.05;;;24.42;;
6898;SDS011;3488;42.616;23.350;2022-12-29T13:49:20;35.85;;;24.77;;
6898;SDS011;3488;42.616;23.350;2022-12-29T13:52:03;44.55;;;24.50;;
6898;SDS011;3488;42.616;23.350;2022-12-29T13:54:42;38.95;;;25.23;;
6898;SDS011;3488;42.616;23.350;2022-12-29T13:57:32;35.67;;;23.38;;
6898;SDS011;3488;42.616;23.350;2022-12-29T14:00:11;48.78;;;28.80;;
6898;SDS011;3488;42.616;23.350;2022-12-29T14:03:00;40.53;;;25.13;;
6898;SDS011;3488;42.616;23.350;2022-12-29T14:06:02;35.13;;;24.95;;
6898;SDS011;3488;42.616;23.350;2022-12-29T14:08:43;41.45;;;24.08;;
6898;SDS011;3488;42.616;23.350;2022-12-29T14:11:14;40.45;;;24.48;;
6898;SDS011;3488;42.616;23.350;2022-12-29T14:13:44;41.20;;;24.92;;
6898;SDS011;3488;42.616;23.350;2022-12-29T14:16:26;40.03;;;24.25;;
6898;SDS011;3488;42.616;23.350;2022-12-29T14:18:55;44.35;;;24.17;;
6898;SDS011;3488;42.616;23.350;2022-12-29T14:21:32;40.28;;;25.10;;
6898;SDS011;3488;42.616;23.350;2022-12-29T14:33:17;41.55;;;25.15;;
6898;SDS011;3488;42.616;23.350;2022-12-29T14:35:46;38.22;;;23.52;;
6898;SDS011;3488;42.616;23.350;2022-12-29T14:38:24;42.13;;;25.00;;
6898;SDS011;3488;42.616;23.350;2022-12-29T14:46:55;39.33;;;25.15;;
6898;SDS011;3488;42.616;23.350;2022-12-29T14:49:39;37.92;;;21.08;;
6898;SDS011;3488;42.616;23.350;2022-12-29T14:52:13;30.23;;;18.73;;
6898;SDS011;3488;42.616;23.350;2022-12-29T14:54:47;33.15;;;20.98;;
6898;SDS011;3488;42.616;23.350;2022-12-29T14:57:29;31.27;;;18.70;;
6898;SDS011;3488;42.616;23.350;2022-12-29T15:00:18;26.13;;;17.08;;
6898;SDS011;3488;42.616;23.350;2022-12-29T15:02:49;25.20;;;17.58;;
6898;SDS011;3488;42.616;23.350;2022-12-29T15:05:31;31.67;;;18.08;;
6898;SDS011;3488;42.616;23.350;2022-12-29T15:08:02;30.02;;;18.17;;
6898;SDS011;3488;42.616;23.350;2022-12-29T15:10:38;30.90;;;18.60;;
6898;SDS011;3488;42.616;23.350;2022-12-29T15:13:14;31.23;;;19.05;;
6898;SDS011;3488;42.616;23.350;2022-12-29T15:15:51;28.55;;;18.75;;
6898;SDS011;3488;42.616;23.350;2022-12-29T15:18:24;35.10;;;20.08;;
6898;SDS011;3488;42.616;23.350;2022-12-29T15:20:53;30.27;;;18.52;;
6898;SDS011;3488;42.616;23.350;2022-12-29T15:23:22;47.80;;;26.38;;
6898;SDS011;3488;42.616;23.350;2022-12-29T15:25:50;44.85;;;26.13;;
6898;SDS011;3488;42.616;23.350;2022-12-29T15:28:21;38.35;;;22.77;;
6898;SDS011;3488;42.616;23.350;2022-12-29T15:30:54;27.33;;;14.93;;
6898;SDS011;3488;42.616;23.350;2022-12-29T15:33:28;28.80;;;18.25;;
6898;SDS011;3488;42.616;23.350;2022-12-29T15:36:03;26.27;;;14.45;;
6898;SDS011;3488;42.616;23.350;2022-12-29T15:38:38;18.02;;;13.13;;
6898;SDS011;3488;42.616;23.350;2022-12-29T15:41:18;26.40;;;13.98;;
6898;SDS011;3488;42.616;23.350;2022-12-29T15:44:20;23.30;;;13.20;;
6898;SDS011;3488;42.616;23.350;2022-12-29T15:46:58;20.52;;;13.38;;
6898;SDS011;3488;42.616;23.350;2022-12-29T15:49:29;18.52;;;12.60;;
6898;SDS011;3488;42.616;23.350;2022-12-29T15:51:56;22.08;;;13.07;;
6898;SDS011;3488;42.616;23.350;2022-12-29T15:54:28;19.40;;;13.02;;
6898;SDS011;3488;42.616;23.350;2022-12-29T15:56:59;19.88;;;11.32;;
6898;SDS011;3488;42.616;23.350;2022-12-29T15:59:29;20.40;;;11.95;;
6898;SDS011;3488;42.616;23.350;2022-12-29T16:02:00;19.98;;;12.90;;